sensor_id;sensor_type;location;lat;lon;timestamp;P1;durP1;ratioP1;P2;durP2;ratioP2
51618;SDS011;38518;53.164;5.430;2023-04-24T00:00:16;11.45;;;8.57;;
51618;SDS011;38518;53.164;5.430;2023-04-24T00:02:43;9.23;;;8.25;;
51618;SDS011;38518;53.164;5.430;2023-04-24T00:05:13;10.80;;;6.50;;
51618;SDS011;38518;53.164;5.430;2023-04-24T00:07:40;9.63;;;7.20;;
51618;SDS011;38518;53.164;5.430;2023-04-24T00:10:07;10.45;;;6.72;;
51618;SDS011;38518;53.164;5.430;2023-04-24T00:12:33;7.45;;;5.75;;
51618;SDS011;38518;53.164;5.430;2023-04-24T00:14:59;8.40;;;6.18;;
51618;SDS011;38518;53.164;5.430;2023-04-24T00:17:25;6.70;;;5.50;;
51618;SDS011;38518;53.164;5.430;2023-04-24T00:19:50;7.45;;;5.05;;
51618;SDS011;38518;53.164;5.430;2023-04-24T00:22:17;7.13;;;5.18;;
51618;SDS011;38518;53.164;5.430;2023-04-24T00:24:43;5.13;;;4.45;;
51618;SDS011;38518;53.164;5.430;2023-04-24T00:27:09;5.93;;;4.55;;
51618;SDS011;38518;53.164;5.430;2023-04-24T00:29:34;7.03;;;4.60;;
51618;SDS011;38518;53.164;5.430;2023-04-24T00:32:00;7.95;;;5.35;;
51618;SDS011;38518;53.164;5.430;2023-04-24T00:34:26;6.18;;;4.95;;
51618;SDS011;38518;53.164;5.430;2023-04-24T00:36:52;6.05;;;5.18;;
51618;SDS011;38518;53.164;5.430;2023-04-24T00:39:18;9.57;;;5.80;;
51618;SDS011;38518;53.164;5.430;2023-04-24T00:41:44;7.90;;;6.03;;
51618;SDS011;38518;53.164;5.430;2023-04-24T00:44:11;7.78;;;5.53;;
51618;SDS011;38518;53.164;5.430;2023-04-24T00:46:37;11.15;;;8.02;;
51618;SDS011;38518;53.164;5.430;2023-04-24T00:49:04;12.88;;;9.02;;
51618;SDS011;38518;53.164;5.430;2023-04-24T00:51:31;10.05;;;8.02;;
51618;SDS011;38518;53.164;5.430;2023-04-24T00:53:58;10.95;;;7.50;;
51618;SDS011;38518;53.164;5.430;2023-04-24T00:56:24;9.88;;;6.47;;
51618;SDS011;38518;53.164;5.430;2023-04-24T00:58:50;8.40;;;6.57;;
51618;SDS011;38518;53.164;5.430;2023-04-24T01:01:16;11.43;;;7.15;;
51618;SDS011;38518;53.164;5.430;2023-04-24T01:03:46;8.65;;;7.57;;
51618;SDS011;38518;53.164;5.430;2023-04-24T01:06:12;11.13;;;7.10;;
51618;SDS011;38518;53.164;5.430;2023-04-24T01:08:39;10.07;;;6.28;;
51618;SDS011;38518;53.164;5.430;2023-04-24T01:11:06;8.20;;;5.80;;
51618;SDS011;38518;53.164;5.430;2023-04-24T01:13:32;7.22;;;4.07;;
51618;SDS011;38518;53.164;5.430;2023-04-24T01:15:59;6.95;;;3.63;;
51618;SDS011;38518;53.164;5.430;2023-04-24T01:18:26;5.43;;;3.58;;
51618;SDS011;38518;53.164;5.430;2023-04-24T01:20:53;6.13;;;3.90;;
51618;SDS011;38518;53.164;5.430;2023-04-24T01:23:22;4.47;;;3.63;;
51618;SDS011;38518;53.164;5.430;2023-04-24T01:25:48;7.20;;;4.30;;
51618;SDS011;38518;53.164;5.430;2023-04-24T01:28:15;6.95;;;4.75;;
51618;SDS011;38518;53.164;5.430;2023-04-24T01:30:42;8.63;;;5.32;;
51618;SDS011;38518;53.164;5.430;2023-04-24T01:33:08;7.65;;;5.85;;
51618;SDS011;38518;53.164;5.430;2023-04-24T01:35:35;7.72;;;5.38;;
51618;SDS011;38518;53.164;5.430;2023-04-24T01:38:02;7.25;;;4.75;;
51618;SDS011;38518;53.164;5.430;2023-04-24T01:40:28;8.02;;;5.63;;
51618;SDS011;38518;53.164;5.430;2023-04-24T01:42:54;8.23;;;5.78;;
51618;SDS011;38518;53.164;5.430;2023-04-24T01:45:20;8.38;;;5.72;;
51618;SDS011;38518;53.164;5.430;2023-04-24T01:47:46;8.05;;;4.53;;
51618;SDS011;38518;53.164;5.430;2023-04-24T01:50:12;6.80;;;3.70;;
51618;SDS011;38518;53.164;5.430;2023-04-24T01:52:39;5.90;;;3.80;;
51618;SDS011;38518;53.164;5.430;2023-04-24T01:55:04;3.65;;;3.30;;
51618;SDS011;38518;53.164;5.430;2023-04-24T01:57:32;6.15;;;3.70;;
51618;SDS011;38518;53.164;5.430;2023-04-24T01:59:58;7.35;;;3.90;;
51618;SDS011;38518;53.164;5.430;2023-04-24T02:02:24;7.10;;;3.92;;
51618;SDS011;38518;53.164;5.430;2023-04-24T02:04:52;7.95;;;3.75;;
51618;SDS011;38518;53.164;5.430;2023-04-24T02:07:19;6.03;;;3.28;;
51618;SDS011;38518;53.164;5.430;2023-04-24T02:09:45;4.75;;;2.72;;
51618;SDS011;38518;53.164;5.430;2023-04-24T02:12:11;5.55;;;3.20;;
51618;SDS011;38518;53.164;5.430;2023-04-24T02:14:37;4.13;;;2.80;;
51618;SDS011;38518;53.164;5.430;2023-04-24T02:17:02;8.40;;;3.38;;
51618;SDS011;38518;53.164;5.430;2023-04-24T02:19:30;6.95;;;4.30;;
51618;SDS011;38518;53.164;5.430;2023-04-24T02:21:56;5.85;;;4.10;;
51618;SDS011;38518;53.164;5.430;2023-04-24T02:24:21;9.70;;;5.57;;
51618;SDS011;38518;53.164;5.430;2023-04-24T02:26:47;8.32;;;6.18;;
51618;SDS011;38518;53.164;5.430;2023-04-24T02:29:13;9.40;;;6.75;;
51618;SDS011;38518;53.164;5.430;2023-04-24T02:31:39;7.95;;;6.43;;
51618;SDS011;38518;53.164;5.430;2023-04-24T02:34:05;11.00;;;6.63;;
51618;SDS011;38518;53.164;5.430;2023-04-24T02:36:31;9.27;;;7.50;;
51618;SDS011;38518;53.164;5.430;2023-04-24T02:38:57;7.97;;;6.28;;
51618;SDS011;38518;53.164;5.430;2023-04-24T02:41:23;12.55;;;7.80;;
51618;SDS011;38518;53.164;5.430;2023-04-24T02:43:48;8.93;;;6.30;;
51618;SDS011;38518;53.164;5.430;2023-04-24T02:46:14;9.45;;;4.97;;
51618;SDS011;38518;53.164;5.430;2023-04-24T02:48:40;4.90;;;4.30;;
51618;SDS011;38518;53.164;5.430;2023-04-24T02:51:06;4.07;;;3.67;;
51618;SDS011;38518;53.164;5.430;2023-04-24T02:53:32;4.75;;;4.05;;
51618;SDS011;38518;53.164;5.430;2023-04-24T02:55:58;5.25;;;4.38;;
51618;SDS011;38518;53.164;5.430;2023-04-24T02:58:24;7.13;;;5.18;;
51618;SDS011;38518;53.164;5.430;2023-04-24T03:00:53;7.85;;;5.05;;
51618;SDS011;38518;53.164;5.430;2023-04-24T03:03:20;4.63;;;4.13;;
51618;SDS011;38518;53.164;5.430;2023-04-24T03:05:46;5.97;;;4.15;;
51618;SDS011;38518;53.164;5.430;2023-04-24T03:08:12;8.15;;;5.00;;
51618;SDS011;38518;53.164;5.430;2023-04-24T03:10:39;5.88;;;4.95;;
51618;SDS011;38518;53.164;5.430;2023-04-24T03:13:05;8.43;;;5.75;;
51618;SDS011;38518;53.164;5.430;2023-04-24T03:15:31;8.85;;;6.82;;
51618;SDS011;38518;53.164;5.430;2023-04-24T03:17:57;7.35;;;5.68;;
51618;SDS011;38518;53.164;5.430;2023-04-24T03:20:22;4.82;;;3.80;;
51618;SDS011;38518;53.164;5.430;2023-04-24T03:22:48;8.82;;;6.40;;
51618;SDS011;38518;53.164;5.430;2023-04-24T03:25:14;8.93;;;5.50;;
51618;SDS011;38518;53.164;5.430;2023-04-24T03:27:40;6.05;;;5.03;;
51618;SDS011;38518;53.164;5.430;2023-04-24T03:30:06;7.38;;;6.65;;
51618;SDS011;38518;53.164;5.430;2023-04-24T03:32:33;9.43;;;7.80;;
51618;SDS011;38518;53.164;5.430;2023-04-24T03:34:58;7.60;;;6.80;;
51618;SDS011;38518;53.164;5.430;2023-04-24T03:37:24;7.80;;;7.00;;
51618;SDS011;38518;53.164;5.430;2023-04-24T03:39:51;8.95;;;7.18;;
51618;SDS011;38518;53.164;5.430;2023-04-24T03:42:17;12.32;;;7.57;;
51618;SDS011;38518;53.164;5.430;2023-04-24T03:44:43;11.23;;;4.65;;
51618;SDS011;38518;53.164;5.430;2023-04-24T03:47:09;7.00;;;5.10;;
51618;SDS011;38518;53.164;5.430;2023-04-24T03:49:34;7.05;;;4.47;;
51618;SDS011;38518;53.164;5.430;2023-04-24T03:52:00;8.18;;;5.10;;
51618;SDS011;38518;53.164;5.430;2023-04-24T03:54:26;7.18;;;5.20;;
51618;SDS011;38518;53.164;5.430;2023-04-24T03:56:52;6.45;;;4.82;;
51618;SDS011;38518;53.164;5.430;2023-04-24T03:59:18;5.68;;;4.43;;
51618;SDS011;38518;53.164;5.430;2023-04-24T04:01:44;11.07;;;5.47;;
51618;SDS011;38518;53.164;5.430;2023-04-24T04:04:10;11.55;;;5.80;;
51618;SDS011;38518;53.164;5.430;2023-04-24T04:06:36;7.22;;;4.63;;
51618;SDS011;38518;53.164;5.430;2023-04-24T04:09:02;7.30;;;4.20;;
51618;SDS011;38518;53.164;5.430;2023-04-24T04:11:28;6.60;;;4.15;;
51618;SDS011;38518;53.164;5.430;2023-04-24T04:13:54;6.72;;;4.50;;
51618;SDS011;38518;53.164;5.430;2023-04-24T04:16:20;8.73;;;4.43;;
51618;SDS011;38518;53.164;5.430;2023-04-24T04:18:46;8.80;;;4.28;;
51618;SDS011;38518;53.164;5.430;2023-04-24T04:21:12;7.30;;;3.90;;
51618;SDS011;38518;53.164;5.430;2023-04-24T04:23:37;7.43;;;4.20;;
51618;SDS011;38518;53.164;5.430;2023-04-24T04:26:04;8.10;;;5.30;;
51618;SDS011;38518;53.164;5.430;2023-04-24T04:28:31;9.23;;;5.65;;
51618;SDS011;38518;53.164;5.430;2023-04-24T04:30:57;11.50;;;7.68;;
51618;SDS011;38518;53.164;5.430;2023-04-24T04:33:23;13.65;;;8.82;;
51618;SDS011;38518;53.164;5.430;2023-04-24T04:35:49;10.82;;;8.07;;
51618;SDS011;38518;53.164;5.430;2023-04-24T04:38:17;8.27;;;6.60;;
51618;SDS011;38518;53.164;5.430;2023-04-24T04:40:44;11.25;;;7.38;;
51618;SDS011;38518;53.164;5.430;2023-04-24T04:43:10;7.15;;;5.53;;
51618;SDS011;38518;53.164;5.430;2023-04-24T04:45:38;9.00;;;5.30;;
51618;SDS011;38518;53.164;5.430;2023-04-24T04:48:06;7.60;;;5.70;;
51618;SDS011;38518;53.164;5.430;2023-04-24T04:50:37;8.93;;;5.63;;
51618;SDS011;38518;53.164;5.430;2023-04-24T04:53:03;6.65;;;3.90;;
51618;SDS011;38518;53.164;5.430;2023-04-24T04:55:30;6.38;;;4.60;;
51618;SDS011;38518;53.164;5.430;2023-04-24T04:57:56;6.63;;;4.97;;
51618;SDS011;38518;53.164;5.430;2023-04-24T05:00:22;8.63;;;5.97;;
51618;SDS011;38518;53.164;5.430;2023-04-24T05:02:50;8.32;;;5.18;;
51618;SDS011;38518;53.164;5.430;2023-04-24T05:05:16;7.78;;;5.70;;
51618;SDS011;38518;53.164;5.430;2023-04-24T05:07:43;9.07;;;6.65;;
51618;SDS011;38518;53.164;5.430;2023-04-24T05:10:09;10.48;;;6.72;;
51618;SDS011;38518;53.164;5.430;2023-04-24T05:12:35;7.28;;;4.75;;
51618;SDS011;38518;53.164;5.430;2023-04-24T05:15:01;7.78;;;4.40;;
51618;SDS011;38518;53.164;5.430;2023-04-24T05:17:27;5.88;;;3.55;;
51618;SDS011;38518;53.164;5.430;2023-04-24T05:19:53;7.00;;;4.00;;
51618;SDS011;38518;53.164;5.430;2023-04-24T05:22:19;7.82;;;3.40;;
51618;SDS011;38518;53.164;5.430;2023-04-24T05:24:46;9.15;;;3.10;;
51618;SDS011;38518;53.164;5.430;2023-04-24T05:27:13;6.05;;;2.63;;
51618;SDS011;38518;53.164;5.430;2023-04-24T05:29:39;6.63;;;2.65;;
51618;SDS011;38518;53.164;5.430;2023-04-24T05:32:05;8.80;;;3.22;;
51618;SDS011;38518;53.164;5.430;2023-04-24T05:34:31;4.45;;;3.53;;
51618;SDS011;38518;53.164;5.430;2023-04-24T05:36:57;9.10;;;4.97;;
51618;SDS011;38518;53.164;5.430;2023-04-24T05:39:23;9.25;;;5.93;;
51618;SDS011;38518;53.164;5.430;2023-04-24T05:41:50;14.07;;;7.30;;
51618;SDS011;38518;53.164;5.430;2023-04-24T05:44:16;15.85;;;9.40;;
51618;SDS011;38518;53.164;5.430;2023-04-24T05:46:42;17.08;;;11.35;;
51618;SDS011;38518;53.164;5.430;2023-04-24T05:49:08;13.75;;;10.15;;
51618;SDS011;38518;53.164;5.430;2023-04-24T05:51:34;16.30;;;10.18;;
51618;SDS011;38518;53.164;5.430;2023-04-24T05:54:00;17.65;;;13.30;;
51618;SDS011;38518;53.164;5.430;2023-04-24T05:56:28;20.50;;;14.82;;
51618;SDS011;38518;53.164;5.430;2023-04-24T05:58:54;21.55;;;14.13;;
51618;SDS011;38518;53.164;5.430;2023-04-24T06:01:20;20.98;;;15.05;;
51618;SDS011;38518;53.164;5.430;2023-04-24T06:03:46;20.92;;;15.27;;
51618;SDS011;38518;53.164;5.430;2023-04-24T06:06:12;19.60;;;12.90;;
51618;SDS011;38518;53.164;5.430;2023-04-24T06:08:40;22.27;;;15.88;;
51618;SDS011;38518;53.164;5.430;2023-04-24T06:11:07;24.00;;;17.63;;
51618;SDS011;38518;53.164;5.430;2023-04-24T06:13:33;19.30;;;16.75;;
51618;SDS011;38518;53.164;5.430;2023-04-24T06:15:59;28.85;;;18.50;;
51618;SDS011;38518;53.164;5.430;2023-04-24T06:18:25;30.08;;;19.63;;
51618;SDS011;38518;53.164;5.430;2023-04-24T06:20:53;29.40;;;16.40;;
51618;SDS011;38518;53.164;5.430;2023-04-24T06:23:20;28.13;;;20.23;;
51618;SDS011;38518;53.164;5.430;2023-04-24T06:25:46;28.50;;;20.20;;
51618;SDS011;38518;53.164;5.430;2023-04-24T06:28:11;23.90;;;19.48;;
51618;SDS011;38518;53.164;5.430;2023-04-24T06:30:37;26.13;;;19.27;;
51618;SDS011;38518;53.164;5.430;2023-04-24T06:33:03;27.63;;;19.33;;
51618;SDS011;38518;53.164;5.430;2023-04-24T06:35:29;23.08;;;16.90;;
51618;SDS011;38518;53.164;5.430;2023-04-24T06:37:55;21.70;;;15.63;;
51618;SDS011;38518;53.164;5.430;2023-04-24T06:40:21;22.52;;;14.80;;
51618;SDS011;38518;53.164;5.430;2023-04-24T06:42:47;17.67;;;12.43;;
51618;SDS011;38518;53.164;5.430;2023-04-24T06:45:13;16.52;;;12.80;;
51618;SDS011;38518;53.164;5.430;2023-04-24T06:47:39;15.07;;;11.55;;
51618;SDS011;38518;53.164;5.430;2023-04-24T06:50:04;16.83;;;12.48;;
51618;SDS011;38518;53.164;5.430;2023-04-24T06:52:31;16.33;;;11.40;;
51618;SDS011;38518;53.164;5.430;2023-04-24T06:55:03;20.88;;;12.65;;
51618;SDS011;38518;53.164;5.430;2023-04-24T06:57:29;15.38;;;10.77;;
51618;SDS011;38518;53.164;5.430;2023-04-24T06:59:55;14.00;;;9.60;;
51618;SDS011;38518;53.164;5.430;2023-04-24T07:02:21;17.10;;;10.13;;
51618;SDS011;38518;53.164;5.430;2023-04-24T07:04:47;15.00;;;9.98;;
51618;SDS011;38518;53.164;5.430;2023-04-24T07:07:13;14.95;;;9.77;;
51618;SDS011;38518;53.164;5.430;2023-04-24T07:09:40;16.98;;;10.38;;
51618;SDS011;38518;53.164;5.430;2023-04-24T07:12:09;13.88;;;9.95;;
51618;SDS011;38518;53.164;5.430;2023-04-24T07:14:39;16.17;;;9.82;;
51618;SDS011;38518;53.164;5.430;2023-04-24T07:17:05;13.63;;;8.20;;
51618;SDS011;38518;53.164;5.430;2023-04-24T07:19:32;13.77;;;8.32;;
51618;SDS011;38518;53.164;5.430;2023-04-24T07:22:00;13.23;;;8.43;;
51618;SDS011;38518;53.164;5.430;2023-04-24T07:24:26;13.73;;;8.60;;
51618;SDS011;38518;53.164;5.430;2023-04-24T07:26:52;18.08;;;7.95;;
51618;SDS011;38518;53.164;5.430;2023-04-24T07:29:19;16.42;;;7.07;;
51618;SDS011;38518;53.164;5.430;2023-04-24T07:31:52;17.35;;;8.95;;
51618;SDS011;38518;53.164;5.430;2023-04-24T07:34:19;17.38;;;8.60;;
51618;SDS011;38518;53.164;5.430;2023-04-24T07:36:45;13.20;;;8.20;;
51618;SDS011;38518;53.164;5.430;2023-04-24T07:39:11;14.98;;;7.70;;
51618;SDS011;38518;53.164;5.430;2023-04-24T07:41:37;14.55;;;7.32;;
51618;SDS011;38518;53.164;5.430;2023-04-24T07:44:03;14.48;;;7.22;;
51618;SDS011;38518;53.164;5.430;2023-04-24T07:46:29;10.63;;;7.07;;
51618;SDS011;38518;53.164;5.430;2023-04-24T07:48:55;11.20;;;6.10;;
51618;SDS011;38518;53.164;5.430;2023-04-24T07:51:21;10.60;;;6.78;;
51618;SDS011;38518;53.164;5.430;2023-04-24T07:53:47;14.90;;;7.38;;
51618;SDS011;38518;53.164;5.430;2023-04-24T07:56:13;13.48;;;6.90;;
51618;SDS011;38518;53.164;5.430;2023-04-24T07:58:38;12.73;;;6.57;;
51618;SDS011;38518;53.164;5.430;2023-04-24T08:01:04;11.98;;;5.95;;
51618;SDS011;38518;53.164;5.430;2023-04-24T08:03:30;10.23;;;5.63;;
51618;SDS011;38518;53.164;5.430;2023-04-24T08:05:56;8.75;;;5.15;;
51618;SDS011;38518;53.164;5.430;2023-04-24T08:08:22;10.25;;;5.22;;
51618;SDS011;38518;53.164;5.430;2023-04-24T08:10:48;11.13;;;5.45;;
51618;SDS011;38518;53.164;5.430;2023-04-24T08:13:14;14.35;;;6.10;;
51618;SDS011;38518;53.164;5.430;2023-04-24T08:15:40;8.70;;;4.70;;
51618;SDS011;38518;53.164;5.430;2023-04-24T08:18:06;12.60;;;5.50;;
51618;SDS011;38518;53.164;5.430;2023-04-24T08:20:32;12.18;;;5.70;;
51618;SDS011;38518;53.164;5.430;2023-04-24T08:22:58;15.00;;;4.60;;
51618;SDS011;38518;53.164;5.430;2023-04-24T08:25:24;13.20;;;6.03;;
51618;SDS011;38518;53.164;5.430;2023-04-24T08:27:50;13.07;;;5.00;;
51618;SDS011;38518;53.164;5.430;2023-04-24T08:30:17;16.95;;;5.80;;
51618;SDS011;38518;53.164;5.430;2023-04-24T08:32:43;13.82;;;5.22;;
51618;SDS011;38518;53.164;5.430;2023-04-24T08:35:08;16.27;;;5.53;;
51618;SDS011;38518;53.164;5.430;2023-04-24T08:37:35;16.73;;;5.03;;
51618;SDS011;38518;53.164;5.430;2023-04-24T08:40:03;14.23;;;4.47;;
51618;SDS011;38518;53.164;5.430;2023-04-24T08:42:44;11.50;;;4.10;;
51618;SDS011;38518;53.164;5.430;2023-04-24T08:45:11;10.73;;;4.50;;
51618;SDS011;38518;53.164;5.430;2023-04-24T08:47:41;16.75;;;4.53;;
51618;SDS011;38518;53.164;5.430;2023-04-24T08:50:08;16.23;;;4.43;;
51618;SDS011;38518;53.164;5.430;2023-04-24T08:52:34;15.48;;;4.18;;
51618;SDS011;38518;53.164;5.430;2023-04-24T08:55:03;13.18;;;4.60;;
51618;SDS011;38518;53.164;5.430;2023-04-24T08:57:32;9.90;;;3.80;;
51618;SDS011;38518;53.164;5.430;2023-04-24T08:59:58;12.07;;;3.97;;
51618;SDS011;38518;53.164;5.430;2023-04-24T09:02:25;14.43;;;4.28;;
51618;SDS011;38518;53.164;5.430;2023-04-24T09:04:51;16.13;;;4.72;;
51618;SDS011;38518;53.164;5.430;2023-04-24T09:07:18;13.30;;;4.43;;
51618;SDS011;38518;53.164;5.430;2023-04-24T09:09:47;16.05;;;4.10;;
51618;SDS011;38518;53.164;5.430;2023-04-24T09:12:15;11.48;;;4.13;;
51618;SDS011;38518;53.164;5.430;2023-04-24T09:14:42;11.75;;;3.90;;
51618;SDS011;38518;53.164;5.430;2023-04-24T09:17:10;13.90;;;4.35;;
51618;SDS011;38518;53.164;5.430;2023-04-24T09:19:36;14.20;;;3.58;;
51618;SDS011;38518;53.164;5.430;2023-04-24T09:22:06;12.70;;;3.97;;
51618;SDS011;38518;53.164;5.430;2023-04-24T09:24:33;13.80;;;3.75;;
51618;SDS011;38518;53.164;5.430;2023-04-24T09:27:02;10.88;;;3.33;;
51618;SDS011;38518;53.164;5.430;2023-04-24T09:29:32;12.13;;;3.65;;
51618;SDS011;38518;53.164;5.430;2023-04-24T09:31:58;12.25;;;3.83;;
51618;SDS011;38518;53.164;5.430;2023-04-24T09:34:27;10.40;;;3.40;;
51618;SDS011;38518;53.164;5.430;2023-04-24T09:36:53;11.10;;;3.58;;
51618;SDS011;38518;53.164;5.430;2023-04-24T09:39:20;13.88;;;3.35;;
51618;SDS011;38518;53.164;5.430;2023-04-24T09:41:52;11.73;;;3.17;;
51618;SDS011;38518;53.164;5.430;2023-04-24T09:44:22;13.48;;;3.40;;
51618;SDS011;38518;53.164;5.430;2023-04-24T09:46:59;15.70;;;3.10;;
51618;SDS011;38518;53.164;5.430;2023-04-24T09:51:52;10.15;;;3.00;;
51618;SDS011;38518;53.164;5.430;2023-04-24T09:54:35;11.13;;;2.90;;
51618;SDS011;38518;53.164;5.430;2023-04-24T09:57:04;11.32;;;3.30;;
51618;SDS011;38518;53.164;5.430;2023-04-24T09:59:32;10.02;;;3.10;;
51618;SDS011;38518;53.164;5.430;2023-04-24T10:01:59;13.13;;;3.38;;
51618;SDS011;38518;53.164;5.430;2023-04-24T10:04:25;10.52;;;3.00;;
51618;SDS011;38518;53.164;5.430;2023-04-24T10:06:54;10.13;;;2.70;;
51618;SDS011;38518;53.164;5.430;2023-04-24T10:09:24;10.77;;;2.67;;
51618;SDS011;38518;53.164;5.430;2023-04-24T10:11:52;17.80;;;3.65;;
51618;SDS011;38518;53.164;5.430;2023-04-24T10:14:20;11.20;;;2.90;;
51618;SDS011;38518;53.164;5.430;2023-04-24T10:16:47;10.68;;;2.70;;
51618;SDS011;38518;53.164;5.430;2023-04-24T10:19:14;8.90;;;2.78;;
51618;SDS011;38518;53.164;5.430;2023-04-24T10:21:44;10.07;;;2.80;;
51618;SDS011;38518;53.164;5.430;2023-04-24T10:24:13;10.27;;;3.55;;
51618;SDS011;38518;53.164;5.430;2023-04-24T10:26:40;10.27;;;2.65;;
51618;SDS011;38518;53.164;5.430;2023-04-24T10:29:07;8.40;;;3.10;;
51618;SDS011;38518;53.164;5.430;2023-04-24T10:31:38;7.97;;;2.50;;
51618;SDS011;38518;53.164;5.430;2023-04-24T10:34:08;8.05;;;2.25;;
51618;SDS011;38518;53.164;5.430;2023-04-24T10:36:55;8.48;;;2.22;;
51618;SDS011;38518;53.164;5.430;2023-04-24T10:39:22;6.35;;;2.08;;
51618;SDS011;38518;53.164;5.430;2023-04-24T10:41:51;8.18;;;2.03;;
51618;SDS011;38518;53.164;5.430;2023-04-24T10:44:44;7.43;;;2.45;;
51618;SDS011;38518;53.164;5.430;2023-04-24T10:47:20;6.75;;;2.10;;
51618;SDS011;38518;53.164;5.430;2023-04-24T11:00:20;7.45;;;2.38;;
51618;SDS011;38518;53.164;5.430;2023-04-24T11:07:19;10.10;;;2.20;;
51618;SDS011;38518;53.164;5.430;2023-04-24T11:20:34;7.50;;;1.80;;
51618;SDS011;38518;53.164;5.430;2023-04-24T11:26:29;7.88;;;2.03;;
51618;SDS011;38518;53.164;5.430;2023-04-24T11:37:40;8.68;;;2.13;;
51618;SDS011;38518;53.164;5.430;2023-04-24T11:40:07;6.88;;;1.80;;
51618;SDS011;38518;53.164;5.430;2023-04-24T11:42:41;4.28;;;1.23;;
51618;SDS011;38518;53.164;5.430;2023-04-24T11:45:32;5.53;;;1.60;;
51618;SDS011;38518;53.164;5.430;2023-04-24T11:48:00;5.70;;;1.23;;
51618;SDS011;38518;53.164;5.430;2023-04-24T11:50:37;7.22;;;1.70;;
51618;SDS011;38518;53.164;5.430;2023-04-24T11:53:14;4.55;;;1.45;;
51618;SDS011;38518;53.164;5.430;2023-04-24T11:55:40;8.45;;;1.75;;
51618;SDS011;38518;53.164;5.430;2023-04-24T11:58:05;8.10;;;2.13;;
51618;SDS011;38518;53.164;5.430;2023-04-24T12:00:40;6.30;;;1.83;;
51618;SDS011;38518;53.164;5.430;2023-04-24T12:03:10;5.57;;;1.60;;
51618;SDS011;38518;53.164;5.430;2023-04-24T12:05:37;4.20;;;1.50;;
51618;SDS011;38518;53.164;5.430;2023-04-24T12:08:03;3.80;;;1.30;;
51618;SDS011;38518;53.164;5.430;2023-04-24T12:10:33;4.65;;;1.30;;
51618;SDS011;38518;53.164;5.430;2023-04-24T12:17:05;6.45;;;1.40;;
51618;SDS011;38518;53.164;5.430;2023-04-24T12:19:33;6.93;;;1.52;;
51618;SDS011;38518;53.164;5.430;2023-04-24T12:22:06;3.75;;;1.30;;
51618;SDS011;38518;53.164;5.430;2023-04-24T12:24:32;4.75;;;1.73;;
51618;SDS011;38518;53.164;5.430;2023-04-24T12:26:58;5.53;;;1.60;;
51618;SDS011;38518;53.164;5.430;2023-04-24T12:29:32;4.15;;;1.48;;
51618;SDS011;38518;53.164;5.430;2023-04-24T12:32:00;5.85;;;1.80;;
51618;SDS011;38518;53.164;5.430;2023-04-24T12:34:31;8.25;;;2.42;;
51618;SDS011;38518;53.164;5.430;2023-04-24T12:37:08;9.35;;;2.97;;
51618;SDS011;38518;53.164;5.430;2023-04-24T12:43:15;11.52;;;3.10;;
51618;SDS011;38518;53.164;5.430;2023-04-24T12:45:44;12.43;;;2.97;;
51618;SDS011;38518;53.164;5.430;2023-04-24T12:48:11;10.23;;;2.80;;
51618;SDS011;38518;53.164;5.430;2023-04-24T12:57:06;11.00;;;2.47;;
51618;SDS011;38518;53.164;5.430;2023-04-24T13:00:00;15.35;;;3.70;;
51618;SDS011;38518;53.164;5.430;2023-04-24T13:02:29;14.20;;;3.63;;
51618;SDS011;38518;53.164;5.430;2023-04-24T13:08:46;14.75;;;3.03;;
51618;SDS011;38518;53.164;5.430;2023-04-24T13:17:42;12.95;;;3.67;;
51618;SDS011;38518;53.164;5.430;2023-04-24T13:20:15;9.68;;;2.85;;
51618;SDS011;38518;53.164;5.430;2023-04-24T13:22:42;12.95;;;3.58;;
51618;SDS011;38518;53.164;5.430;2023-04-24T13:25:08;13.13;;;3.63;;
51618;SDS011;38518;53.164;5.430;2023-04-24T13:27:35;14.02;;;4.13;;
51618;SDS011;38518;53.164;5.430;2023-04-24T13:32:50;7.47;;;2.40;;
51618;SDS011;38518;53.164;5.430;2023-04-24T13:35:18;9.55;;;2.83;;
51618;SDS011;38518;53.164;5.430;2023-04-24T13:37:44;13.00;;;2.83;;
51618;SDS011;38518;53.164;5.430;2023-04-24T13:40:10;12.70;;;3.25;;
51618;SDS011;38518;53.164;5.430;2023-04-24T13:42:41;11.82;;;3.80;;
51618;SDS011;38518;53.164;5.430;2023-04-24T13:45:08;11.05;;;3.58;;
51618;SDS011;38518;53.164;5.430;2023-04-24T13:51:11;13.25;;;3.67;;
51618;SDS011;38518;53.164;5.430;2023-04-24T13:53:40;17.42;;;4.43;;
51618;SDS011;38518;53.164;5.430;2023-04-24T13:56:09;10.23;;;3.50;;
51618;SDS011;38518;53.164;5.430;2023-04-24T13:58:44;15.05;;;3.70;;
51618;SDS011;38518;53.164;5.430;2023-04-24T14:01:10;13.80;;;4.28;;
51618;SDS011;38518;53.164;5.430;2023-04-24T14:06:34;12.37;;;3.90;;
51618;SDS011;38518;53.164;5.430;2023-04-24T14:09:06;15.07;;;4.20;;
51618;SDS011;38518;53.164;5.430;2023-04-24T14:11:42;16.95;;;4.30;;
51618;SDS011;38518;53.164;5.430;2023-04-24T14:17:47;14.02;;;4.22;;
51618;SDS011;38518;53.164;5.430;2023-04-24T14:20:24;15.63;;;4.18;;
51618;SDS011;38518;53.164;5.430;2023-04-24T14:22:53;14.65;;;5.70;;
51618;SDS011;38518;53.164;5.430;2023-04-24T14:25:30;13.05;;;4.05;;
51618;SDS011;38518;53.164;5.430;2023-04-24T14:31:37;13.25;;;3.75;;
51618;SDS011;38518;53.164;5.430;2023-04-24T14:34:04;13.50;;;4.10;;
51618;SDS011;38518;53.164;5.430;2023-04-24T14:36:30;15.38;;;4.25;;
51618;SDS011;38518;53.164;5.430;2023-04-24T14:39:01;13.75;;;4.32;;
51618;SDS011;38518;53.164;5.430;2023-04-24T14:41:35;16.85;;;4.40;;
51618;SDS011;38518;53.164;5.430;2023-04-24T14:44:05;11.85;;;4.25;;
51618;SDS011;38518;53.164;5.430;2023-04-24T14:46:31;18.73;;;4.93;;
51618;SDS011;38518;53.164;5.430;2023-04-24T14:48:59;12.23;;;4.28;;
51618;SDS011;38518;53.164;5.430;2023-04-24T14:51:25;15.73;;;4.50;;
51618;SDS011;38518;53.164;5.430;2023-04-24T14:53:53;15.13;;;4.22;;
51618;SDS011;38518;53.164;5.430;2023-04-24T14:56:26;16.67;;;4.80;;
51618;SDS011;38518;53.164;5.430;2023-04-24T14:58:58;15.18;;;4.60;;
51618;SDS011;38518;53.164;5.430;2023-04-24T15:01:35;13.15;;;4.50;;
51618;SDS011;38518;53.164;5.430;2023-04-24T15:04:12;12.38;;;4.18;;
51618;SDS011;38518;53.164;5.430;2023-04-24T15:06:41;14.85;;;4.07;;
51618;SDS011;38518;53.164;5.430;2023-04-24T15:09:07;16.52;;;4.63;;
51618;SDS011;38518;53.164;5.430;2023-04-24T15:11:33;16.05;;;4.55;;
51618;SDS011;38518;53.164;5.430;2023-04-24T15:14:05;13.95;;;4.72;;
51618;SDS011;38518;53.164;5.430;2023-04-24T15:16:31;19.83;;;5.90;;
51618;SDS011;38518;53.164;5.430;2023-04-24T15:19:29;14.95;;;5.10;;
51618;SDS011;38518;53.164;5.430;2023-04-24T15:21:56;15.60;;;4.95;;
51618;SDS011;38518;53.164;5.430;2023-04-24T15:24:22;15.32;;;5.65;;
51618;SDS011;38518;53.164;5.430;2023-04-24T15:29:45;16.73;;;5.77;;
51618;SDS011;38518;53.164;5.430;2023-04-24T15:32:11;19.13;;;5.57;;
51618;SDS011;38518;53.164;5.430;2023-04-24T15:34:37;14.85;;;4.50;;
51618;SDS011;38518;53.164;5.430;2023-04-24T15:37:03;18.77;;;4.97;;
51618;SDS011;38518;53.164;5.430;2023-04-24T15:39:35;17.50;;;5.22;;
51618;SDS011;38518;53.164;5.430;2023-04-24T15:42:07;17.88;;;5.00;;
51618;SDS011;38518;53.164;5.430;2023-04-24T15:45:06;14.65;;;4.32;;
51618;SDS011;38518;53.164;5.430;2023-04-24T15:50:47;22.35;;;5.05;;
51618;SDS011;38518;53.164;5.430;2023-04-24T15:53:12;16.70;;;5.07;;
51618;SDS011;38518;53.164;5.430;2023-04-24T15:55:41;15.65;;;5.20;;
51618;SDS011;38518;53.164;5.430;2023-04-24T16:01:01;10.50;;;3.15;;
51618;SDS011;38518;53.164;5.430;2023-04-24T16:03:41;10.00;;;3.05;;
51618;SDS011;38518;53.164;5.430;2023-04-24T16:06:10;12.13;;;3.58;;
51618;SDS011;38518;53.164;5.430;2023-04-24T16:08:36;12.05;;;3.97;;
51618;SDS011;38518;53.164;5.430;2023-04-24T16:11:02;19.90;;;4.32;;